Mapleville, Rhode Island
Current Conditions -  °F | °C
As of 9:35 AM on Monday 20 Oct 2014 (Local Time) from KSFZ Reporting Station
Clear Clear  
Wind Chill: 39°   Ceiling: Unl
Heat Index: 43°   Visibility: 10mi
Dew Point: 27°   Wind: 6mph
Humidity: 53%   Direction: 240°WSW
Pressure: 30.07"   Gusts: NA
Location:  41.95°N, 71.65°W
Report Text: KSFZ 201335Z 24005KT 10SM CLR 06/M03 A3007 RMK AO1
Loading
Personal Weather Stations






























Interactive Weather Map
Tropical Storm Tracking
New forecast layout! Learn more

10-Day Weather Forecast

Advertisements
Track Severe Weather on mobile